Time;durP1;ratioP1;P1;durP2;ratioP2;P2;SDS_P1;SDS_P2;PMS_P1;PMS_P2;Temp;Humidity;BMP_temperature;BMP_pressure;BME280_temperature;BME280_humidity;BME280_pressure;Samples;Min_cycle;Max_cycle;Signal;HPM_P1;HPM_P2
2022/04/23 00:01:09;;;;;;;1999.90;999.90;;;11.70;99.90;;;;;;5057206;28;20192;-70
2022/04/23 00:03:35;;;;;;;1999.90;999.90;;;11.70;99.90;;;;;;5057160;28;20184;-70
2022/04/23 00:06:02;;;;;;;1999.90;999.90;;;11.70;99.90;;;;;;5073179;28;20191;-70
2022/04/23 00:08:28;;;;;;;1999.90;999.90;;;11.70;99.90;;;;;;5070730;28;20192;-70
2022/04/23 00:10:53;;;;;;;1999.90;999.90;;;11.70;99.90;;;;;;5086542;28;20192;-69
2022/04/23 00:13:19;;;;;;;1999.90;999.90;;;11.70;99.90;;;;;;5092583;28;20195;-69
2022/04/23 00:15:45;;;;;;;1999.90;999.90;;;11.70;99.90;;;;;;5091988;28;20576;-69
2022/04/23 00:18:10;;;;;;;1999.90;999.90;;;11.60;99.90;;;;;;5056918;28;20258;-70
2022/04/23 00:20:37;;;;;;;1999.90;999.90;;;11.60;99.90;;;;;;5055521;28;20238;-69
2022/04/23 00:23:04;;;;;;;1999.90;999.90;;;11.60;99.90;;;;;;5092292;28;20548;-70
2022/04/23 00:25:31;;;;;;;1999.90;999.90;;;11.60;99.90;;;;;;5074236;28;20287;-69
2022/04/23 00:27:56;;;;;;;1999.90;999.90;;;11.70;99.90;;;;;;5073785;28;20188;-69
2022/04/23 00:30:22;;;;;;;1999.90;999.90;;;11.70;99.90;;;;;;5057500;28;20203;-70
2022/04/23 00:32:48;;;;;;;1999.90;999.90;;;11.70;99.90;;;;;;5056810;28;20227;-70
2022/04/23 00:35:14;;;;;;;1999.90;999.90;;;11.60;99.90;;;;;;5091999;28;20223;-69
2022/04/23 00:37:41;;;;;;;1999.90;999.90;;;11.70;99.90;;;;;;5072655;28;20209;-70
2022/04/23 00:40:08;;;;;;;1999.90;999.90;;;11.70;99.90;;;;;;5057018;28;20653;-70
2022/04/23 00:42:50;;;;;;;1999.90;999.90;;;11.70;99.90;;;;;;5065383;28;20258;-69
2022/04/23 00:45:16;;;;;;;1982.80;999.90;;;11.80;99.90;;;;;;5073446;28;20188;-70
2022/04/23 00:47:42;;;;;;;1999.90;999.90;;;11.90;99.90;;;;;;5060992;28;20247;-70
2022/04/23 00:50:08;;;;;;;1999.90;999.90;;;11.90;99.90;;;;;;5094562;28;20279;-69
2022/04/23 00:52:35;;;;;;;1999.90;999.90;;;11.80;99.90;;;;;;5095344;28;20272;-69
2022/04/23 00:55:05;;;;;;;1999.90;999.90;;;11.70;99.90;;;;;;5060991;28;20180;-70
2022/04/23 00:57:31;;;;;;;1999.90;999.90;;;11.70;99.90;;;;;;5076585;28;20212;-70
2022/04/23 00:59:58;;;;;;;1999.90;999.90;;;11.60;99.90;;;;;;5077043;28;20199;-69
2022/04/23 01:02:24;;;;;;;1999.90;999.90;;;11.60;99.90;;;;;;5060507;28;20189;-70
2022/04/23 01:04:49;;;;;;;1999.90;999.90;;;11.70;99.90;;;;;;5091061;28;20192;-70
2022/04/23 01:07:15;;;;;;;1999.90;999.90;;;11.60;99.90;;;;;;5058978;28;20188;-70
2022/04/23 01:09:44;;;;;;;1999.90;999.90;;;11.70;99.90;;;;;;5076899;28;20609;-70
2022/04/23 01:12:11;;;;;;;1999.90;999.90;;;11.70;99.90;;;;;;5065423;28;20184;-69
2022/04/23 01:15:15;;;;;;;1999.90;999.90;;;11.70;99.90;;;;;;5060570;28;20189;-70
2022/04/23 01:17:42;;;;;;;1999.90;999.90;;;11.60;99.90;;;;;;5093881;28;20700;-70
2022/04/23 01:20:12;;;;;;;1999.90;999.90;;;11.50;99.90;;;;;;5093871;28;20180;-69
2022/04/23 01:22:39;;;;;;;1999.90;999.90;;;11.40;99.90;;;;;;5094852;28;20636;-69
2022/04/23 01:25:07;;;;;;;1999.90;999.90;;;11.40;99.90;;;;;;5076430;28;20181;-70
2022/04/23 01:27:35;;;;;;;1999.90;999.90;;;11.40;99.90;;;;;;5076418;28;20266;-70
2022/04/23 01:30:01;;;;;;;1999.90;999.90;;;11.40;99.90;;;;;;5093209;28;20192;-70
2022/04/23 01:32:27;;;;;;;1999.90;999.90;;;11.50;99.90;;;;;;5076397;28;20189;-70
2022/04/23 01:34:53;;;;;;;1999.90;999.90;;;11.50;99.90;;;;;;5095720;28;20242;-70
2022/04/23 01:37:19;;;;;;;1999.90;999.90;;;11.40;99.90;;;;;;5066431;28;20216;-69
2022/04/23 01:39:49;;;;;;;1999.90;999.90;;;11.50;99.90;;;;;;5094663;28;20548;-70
2022/04/23 01:42:19;;;;;;;1999.90;999.90;;;11.50;99.90;;;;;;5093508;28;20771;-69
2022/04/23 01:44:46;;;;;;;1999.90;999.90;;;11.50;99.90;;;;;;5059581;28;20192;-70
2022/04/23 01:47:12;;;;;;;1999.90;999.90;;;11.50;99.90;;;;;;5060418;28;20185;-69
2022/04/23 01:49:38;;;;;;;1999.90;999.90;;;11.60;99.90;;;;;;5094024;28;20523;-69
2022/04/23 01:52:05;;;;;;;1999.90;999.90;;;11.50;99.90;;;;;;5042391;28;20196;-70
2022/04/23 01:54:32;;;;;;;1999.90;999.90;;;11.50;99.90;;;;;;5092626;28;20189;-69
2022/04/23 01:56:58;;;;;;;1999.90;999.90;;;11.60;99.90;;;;;;5057171;28;20192;-69
2022/04/23 01:59:24;;;;;;;1999.90;999.90;;;11.60;99.90;;;;;;5071210;28;20186;-69
2022/04/23 02:01:50;;;;;;;1999.90;999.90;;;11.50;99.90;;;;;;5082339;28;20192;-70
2022/04/23 02:04:16;;;;;;;1999.90;999.90;;;11.50;99.90;;;;;;5074791;28;20180;-69
2022/04/23 02:06:42;;;;;;;1999.90;999.90;;;11.50;99.90;;;;;;5075544;28;20253;-70
2022/04/23 02:09:08;;;;;;;1999.90;999.90;;;11.50;99.90;;;;;;5075362;28;20189;-70
2022/04/23 02:11:34;;;;;;;1999.90;999.90;;;11.50;99.90;;;;;;5058143;28;20189;-70
2022/04/23 02:14:02;;;;;;;1999.90;999.90;;;11.50;99.90;;;;;;5041959;28;20185;-69
2022/04/23 02:16:28;;;;;;;1999.90;999.90;;;11.50;99.90;;;;;;5075688;28;20280;-70
2022/04/23 02:18:57;;;;;;;1999.90;999.90;;;11.50;99.90;;;;;;5075291;28;20240;-70
2022/04/23 02:21:27;;;;;;;1999.90;999.90;;;11.50;99.90;;;;;;5056245;28;20200;-69
2022/04/23 02:23:54;;;;;;;1988.20;999.90;;;11.50;99.90;;;;;;5064033;28;20224;-69
2022/04/23 02:26:20;;;;;;;1999.90;999.90;;;11.50;99.90;;;;;;5090645;28;20193;-69
2022/04/23 02:28:50;;;;;;;1999.90;999.90;;;11.50;99.90;;;;;;5093443;28;20276;-70
2022/04/23 02:31:16;;;;;;;1999.90;999.90;;;11.50;99.90;;;;;;5074922;28;20185;-70
2022/04/23 02:33:42;;;;;;;1999.90;999.90;;;11.50;99.90;;;;;;5058568;28;20185;-70
2022/04/23 02:36:08;;;;;;;1905.73;999.90;;;11.50;99.90;;;;;;5074958;28;20238;-69
2022/04/23 02:38:34;;;;;;;1999.90;999.90;;;11.40;99.90;;;;;;5075369;28;20247;-69
2022/04/23 02:41:00;;;;;;;1999.90;999.90;;;11.50;99.90;;;;;;5092883;28;20199;-69
2022/04/23 02:43:25;;;;;;;1999.90;999.90;;;11.50;99.90;;;;;;5055677;28;20185;-70
2022/04/23 02:45:52;;;;;;;1999.90;999.90;;;11.50;99.90;;;;;;5078363;28;20189;-69
2022/04/23 02:48:18;;;;;;;1999.90;999.90;;;11.60;99.90;;;;;;5055539;28;20524;-69
2022/04/23 02:50:44;;;;;;;1999.90;999.90;;;11.60;99.90;;;;;;5059896;28;20579;-69
2022/04/23 02:53:10;;;;;;;1999.90;999.90;;;11.50;99.90;;;;;;5092628;28;20173;-69
2022/04/23 02:55:37;;;;;;;1999.90;999.90;;;11.50;99.90;;;;;;5075588;28;20634;-70
2022/04/23 02:58:08;;;;;;;1999.90;999.90;;;11.50;99.90;;;;;;5092370;28;20235;-70
2022/04/23 03:00:38;;;;;;;1999.90;999.90;;;11.50;99.90;;;;;;5074946;28;20567;-70
2022/04/23 03:03:07;;;;;;;1970.70;999.90;;;11.50;99.90;;;;;;5092743;28;20185;-69
2022/04/23 03:05:33;;;;;;;1999.90;999.90;;;11.40;99.90;;;;;;5074412;28;20197;-69
2022/04/23 03:08:02;;;;;;;1999.90;999.90;;;11.40;99.90;;;;;;5074888;28;20542;-70
2022/04/23 03:10:29;;;;;;;1999.90;999.90;;;11.40;99.90;;;;;;5074443;28;20180;-70
2022/04/23 03:12:57;;;;;;;1999.90;999.90;;;11.50;99.90;;;;;;5074962;28;20189;-69
2022/04/23 03:15:28;;;;;;;1999.90;999.90;;;11.40;99.90;;;;;;5037913;28;20250;-69
2022/04/23 03:18:08;;;;;;;1999.90;999.90;;;11.50;99.90;;;;;;5092084;28;20216;-69
2022/04/23 03:20:35;;;;;;;1999.90;999.90;;;11.50;99.90;;;;;;5092187;28;20537;-69
2022/04/23 03:23:00;;;;;;;1999.90;999.90;;;11.50;99.90;;;;;;5057206;28;20200;-70
2022/04/23 03:25:31;;;;;;;1999.90;999.90;;;11.50;99.90;;;;;;5092357;28;20193;-70
2022/04/23 03:27:57;;;;;;;1863.90;999.90;;;11.50;99.90;;;;;;5092757;28;20181;-70
2022/04/23 03:30:23;;;;;;;1999.90;999.90;;;11.40;99.90;;;;;;5074625;28;20193;-68
2022/04/23 03:32:48;;;;;;;1999.90;999.90;;;11.30;99.90;;;;;;5074632;28;20543;-69
2022/04/23 03:35:17;;;;;;;1999.90;999.90;;;11.30;99.90;;;;;;5074733;28;20271;-69
2022/04/23 03:37:43;;;;;;;1905.47;999.90;;;11.30;99.90;;;;;;5092368;28;20295;-69
2022/04/23 03:40:10;;;;;;;1999.90;999.90;;;11.30;99.90;;;;;;5072844;28;20268;-70
2022/04/23 03:42:36;;;;;;;1847.37;956.27;;;11.40;99.90;;;;;;5074357;28;20189;-71
2022/04/23 03:45:04;;;;;;;1999.90;999.90;;;11.30;99.90;;;;;;5057402;28;20614;-69
2022/04/23 03:47:31;;;;;;;1999.90;999.90;;;11.30;99.90;;;;;;5073653;28;20181;-69
2022/04/23 03:49:57;;;;;;;1999.90;999.90;;;11.30;99.90;;;;;;5045867;28;20565;-69
2022/04/23 03:52:23;;;;;;;1999.90;999.90;;;11.20;99.90;;;;;;5073174;28;20192;-69
2022/04/23 03:54:49;;;;;;;1834.93;999.90;;;11.20;99.90;;;;;;5069340;28;20550;-70
2022/04/23 03:57:14;;;;;;;1999.90;999.90;;;11.20;99.90;;;;;;5071168;28;20306;-69
2022/04/23 03:59:40;;;;;;;1999.90;999.90;;;11.20;99.90;;;;;;5073411;28;20200;-69
2022/04/23 04:02:06;;;;;;;1999.90;999.90;;;11.20;99.90;;;;;;5074121;28;20663;-69
2022/04/23 04:04:32;;;;;;;1999.90;999.90;;;11.30;99.90;;;;;;5040839;28;20239;-69
2022/04/23 04:07:00;;;;;;;1999.90;999.90;;;11.20;99.90;;;;;;5074500;28;20188;-69
2022/04/23 04:09:27;;;;;;;1999.90;999.90;;;11.10;99.90;;;;;;5073763;28;20633;-70
2022/04/23 04:12:01;;;;;;;1999.90;999.90;;;11.20;99.90;;;;;;5074069;28;20248;-69
2022/04/23 04:14:31;;;;;;;1999.90;999.90;;;11.20;99.90;;;;;;5075852;28;20199;-69
2022/04/23 04:17:01;;;;;;;1999.90;999.90;;;11.30;99.90;;;;;;5088081;28;20227;-69
2022/04/23 04:19:28;;;;;;;1999.90;999.90;;;11.30;99.90;;;;;;5051813;28;20189;-71
2022/04/23 04:21:55;;;;;;;1999.90;999.90;;;11.30;99.90;;;;;;5095473;28;20648;-70
2022/04/23 04:24:20;;;;;;;1999.90;999.90;;;11.30;99.90;;;;;;5078124;28;20238;-70
2022/04/23 04:26:49;;;;;;;1999.90;999.90;;;11.30;99.90;;;;;;5094489;28;20192;-71
2022/04/23 04:29:14;;;;;;;1999.90;999.90;;;11.30;99.90;;;;;;5096201;28;20212;-70
2022/04/23 04:31:49;;;;;;;1999.90;999.90;;;11.30;99.90;;;;;;5077697;28;20592;-70
2022/04/23 04:34:30;;;;;;;1999.90;999.90;;;11.10;99.90;;;;;;5094762;28;20577;-70
2022/04/23 04:37:11;;;;;;;1999.90;999.90;;;11.10;99.90;;;;;;5095499;28;20181;-70
2022/04/23 04:39:41;;;;;;;1999.90;999.90;;;11.10;99.90;;;;;;5096065;28;20544;-71
2022/04/23 04:42:08;;;;;;;1999.90;999.90;;;11.00;99.90;;;;;;5095521;28;20184;-70
2022/04/23 04:44:34;;;;;;;1999.90;999.90;;;11.00;99.90;;;;;;5094888;28;20184;-71
2022/04/23 04:47:00;;;;;;;1999.90;999.90;;;11.00;99.90;;;;;;5059007;28;20190;-70
2022/04/23 04:49:26;;;;;;;1999.90;999.90;;;11.00;99.90;;;;;;5077029;28;20185;-70
2022/04/23 04:51:53;;;;;;;1999.90;999.90;;;11.00;99.90;;;;;;5059633;28;20188;-70
2022/04/23 04:54:21;;;;;;;1999.90;999.90;;;11.00;99.90;;;;;;5077039;28;20275;-71
2022/04/23 04:56:48;;;;;;;1999.90;999.90;;;11.10;99.90;;;;;;5088306;28;20186;-68
2022/04/23 04:59:14;;;;;;;1575.87;999.90;;;11.10;99.90;;;;;;5071771;28;20311;-70
2022/04/23 05:01:40;;;;;;;1999.90;999.90;;;11.00;99.90;;;;;;5095372;28;20208;-71
2022/04/23 05:04:06;;;;;;;1999.90;999.90;;;11.00;99.90;;;;;;5094993;28;20231;-70
2022/04/23 05:06:31;;;;;;;1999.90;999.90;;;11.00;99.90;;;;;;5095391;28;20646;-71
2022/04/23 05:08:57;;;;;;;1999.90;999.90;;;11.10;99.90;;;;;;5093985;28;20199;-71
2022/04/23 05:11:24;;;;;;;1999.90;999.90;;;11.10;99.90;;;;;;5095525;28;20189;-71
2022/04/23 05:13:50;;;;;;;1999.90;999.90;;;11.20;99.90;;;;;;5076247;28;20211;-70
2022/04/23 05:16:16;;;;;;;1999.90;999.90;;;11.30;99.90;;;;;;5076448;28;20242;-71
2022/04/23 05:18:42;;;;;;;1899.23;999.90;;;11.20;99.90;;;;;;5076943;28;20679;-71
2022/04/23 05:21:07;;;;;;;1999.90;999.90;;;11.20;99.90;;;;;;5076792;28;20189;-70
2022/04/23 05:23:33;;;;;;;1999.90;999.90;;;11.30;99.90;;;;;;5076624;28;20192;-69
2022/04/23 05:25:59;;;;;;;1999.90;999.90;;;11.20;99.90;;;;;;5076680;28;20281;-69
2022/04/23 05:28:24;;;;;;;1999.90;999.90;;;11.20;99.90;;;;;;5058951;28;20189;-69
2022/04/23 05:30:50;;;;;;;1999.90;999.90;;;11.10;99.90;;;;;;5059592;28;20203;-69
2022/04/23 05:33:19;;;;;;;1999.90;999.90;;;11.20;99.90;;;;;;5076556;28;20188;-69
2022/04/23 05:35:45;;;;;;;1999.90;999.90;;;11.20;99.90;;;;;;5094320;28;20242;-69
2022/04/23 05:38:10;;;;;;;1999.90;999.90;;;11.20;99.90;;;;;;5094325;28;20621;-70
2022/04/23 05:40:36;;;;;;;1999.90;999.90;;;11.10;99.90;;;;;;5094365;28;20192;-69
2022/04/23 05:43:02;;;;;;;1689.60;999.90;;;11.20;99.90;;;;;;5093878;28;20192;-69
2022/04/23 05:45:29;;;;;;;1999.90;999.90;;;11.20;99.90;;;;;;5075910;28;20193;-69
2022/04/23 05:47:56;;;;;;;1999.90;999.90;;;11.20;99.90;;;;;;5059764;28;20649;-69
2022/04/23 05:50:23;;;;;;;1996.40;999.90;;;11.30;99.90;;;;;;5093953;28;20223;-70
2022/04/23 05:52:49;;;;;;;1999.90;999.90;;;11.30;99.90;;;;;;5075824;28;20230;-69
2022/04/23 05:55:15;;;;;;;1999.90;999.90;;;11.30;99.90;;;;;;5075745;28;20642;-69
2022/04/23 05:57:41;;;;;;;1999.90;999.90;;;11.40;99.90;;;;;;5093997;28;20224;-69
2022/04/23 06:00:09;;;;;;;1999.90;999.90;;;11.50;99.90;;;;;;5093338;28;20207;-69
2022/04/23 06:02:35;;;;;;;1999.07;999.90;;;11.50;99.90;;;;;;5093937;28;20189;-69
2022/04/23 06:05:01;;;;;;;1999.90;999.90;;;11.40;99.90;;;;;;5058428;28;20184;-69
2022/04/23 06:07:27;;;;;;;1999.90;999.90;;;11.30;99.90;;;;;;5075961;28;20656;-69
2022/04/23 06:09:53;;;;;;;1999.90;999.90;;;11.30;99.90;;;;;;5093311;28;20193;-70
2022/04/23 06:12:19;;;;;;;1994.90;999.90;;;11.30;99.90;;;;;;5093842;28;20189;-70
2022/04/23 06:14:44;;;;;;;1999.90;999.90;;;11.40;99.90;;;;;;5075723;28;20270;-68
2022/04/23 06:17:12;;;;;;;1999.90;999.90;;;11.50;99.90;;;;;;5075384;28;20543;-68
2022/04/23 06:19:42;;;;;;;1999.90;999.90;;;11.60;99.90;;;;;;5092329;28;20177;-68
2022/04/23 06:22:08;;;;;;;1814.13;999.90;;;11.70;99.90;;;;;;5058208;28;20184;-72
2022/04/23 06:24:34;;;;;;;1226.20;689.43;;;11.70;99.90;;;;;;5059133;28;20196;-68
2022/04/23 06:27:01;;;;;;;1999.30;999.90;;;11.90;99.90;;;;;;5093548;28;20184;-69
2022/04/23 06:29:26;;;;;;;1999.90;999.90;;;11.70;99.90;;;;;;5058018;28;20602;-68
2022/04/23 06:31:52;;;;;;;1999.90;999.90;;;11.70;99.90;;;;;;5074031;28;20184;-68
2022/04/23 06:34:19;;;;;;;1999.90;999.90;;;11.80;99.90;;;;;;5089946;28;20181;-69
2022/04/23 06:36:44;;;;;;;1828.03;999.90;;;11.90;99.90;;;;;;5071447;28;20192;-69
2022/04/23 06:39:10;;;;;;;1999.90;999.90;;;11.90;99.90;;;;;;5058522;28;20624;-69
2022/04/23 06:41:36;;;;;;;1999.90;999.90;;;11.90;99.90;;;;;;5075452;28;20279;-68
2022/04/23 06:44:01;;;;;;;1950.97;999.90;;;11.90;99.90;;;;;;5093386;28;20211;-68
2022/04/23 06:46:27;;;;;;;1999.90;999.90;;;11.90;99.90;;;;;;5057533;28;20211;-68
2022/04/23 06:48:53;;;;;;;1999.90;999.90;;;11.80;99.90;;;;;;5075130;28;20188;-69
2022/04/23 06:51:19;;;;;;;1863.50;999.90;;;11.90;99.90;;;;;;5075812;28;20200;-69
2022/04/23 06:53:45;;;;;;;1999.90;999.90;;;12.00;99.90;;;;;;5093035;28;20220;-67
2022/04/23 06:56:10;;;;;;;1906.13;999.90;;;12.20;99.90;;;;;;5092798;28;20192;-67
2022/04/23 06:58:36;;;;;;;1999.90;999.90;;;12.30;99.90;;;;;;5057610;28;20321;-71
2022/04/23 07:01:03;;;;;;;1999.90;999.90;;;12.50;99.90;;;;;;5092130;28;20200;-68
2022/04/23 07:03:29;;;;;;;1999.90;999.90;;;12.50;99.90;;;;;;5074487;28;20188;-68
2022/04/23 07:05:55;;;;;;;1999.90;999.90;;;12.60;99.90;;;;;;5082664;28;20189;-70
2022/04/23 07:08:21;;;;;;;1999.90;999.90;;;12.70;99.90;;;;;;5092051;28;20334;-69
2022/04/23 07:10:46;;;;;;;1999.90;999.90;;;12.90;99.90;;;;;;5074557;28;20518;-70
2022/04/23 07:13:12;;;;;;;1999.90;999.90;;;13.00;99.90;;;;;;5074357;28;20325;-69
2022/04/23 07:15:41;;;;;;;1999.90;999.90;;;13.10;99.90;;;;;;5056972;28;20192;-69
2022/04/23 07:18:08;;;;;;;1999.90;999.90;;;13.20;99.90;;;;;;5058900;28;20209;-70
2022/04/23 07:20:34;;;;;;;1999.90;999.90;;;13.10;99.90;;;;;;5057207;28;20200;-69
2022/04/23 07:25:45;;;;;;;1999.90;999.90;;;13.20;99.90;;;;;;5077689;28;20241;-68
2022/04/23 07:28:11;;;;;;;916.35;543.22;;;13.20;99.90;;;;;;5073857;28;20695;-68
2022/04/23 07:30:37;;;;;;;1999.90;999.90;;;13.30;99.90;;;;;;5057108;28;20191;-70
2022/04/23 07:33:05;;;;;;;1703.78;875.97;;;13.40;99.90;;;;;;5092590;28;20202;-69
2022/04/23 07:38:20;;;;;;;1999.90;999.90;;;14.90;99.90;;;;;;5077086;28;20253;-70
2022/04/23 07:40:47;;;;;;;1999.90;999.90;;;15.70;99.90;;;;;;5074165;28;20649;-68
2022/04/23 07:43:14;;;;;;;1999.90;999.90;;;16.00;99.90;;;;;;5092082;28;20306;-68
2022/04/23 07:45:41;;;;;;;1999.90;999.90;;;16.50;99.90;;;;;;5073990;28;20699;-69
2022/04/23 07:48:09;;;;;;;1999.90;999.90;;;17.20;99.90;;;;;;5091302;28;20188;-69
2022/04/23 07:50:35;;;;;;;1999.90;999.90;;;16.90;99.90;;;;;;5086755;28;20227;-69
2022/04/23 07:53:02;;;;;;;1999.90;999.90;;;17.30;99.90;;;;;;5029192;28;20200;-69
2022/04/23 07:55:33;;;;;;;1999.90;999.90;;;17.50;99.90;;;;;;5096526;28;20233;-69
2022/04/23 07:57:59;;;;;;;1999.90;999.90;;;17.20;99.90;;;;;;5096299;28;20220;-69
2022/04/23 08:00:29;;;;;;;1999.90;999.90;;;17.50;99.90;;;;;;5075207;28;20192;-70
2022/04/23 08:02:56;;;;;;;1999.90;999.90;;;16.80;99.90;;;;;;5071685;28;20273;-70
2022/04/23 08:05:21;;;;;;;1999.90;999.90;;;17.20;99.90;;;;;;5096151;28;20191;-69
2022/04/23 08:07:47;;;;;;;1999.90;999.90;;;17.60;99.90;;;;;;5061789;28;20192;-69
2022/04/23 08:10:13;;;;;;;1999.90;999.90;;;18.00;99.90;;;;;;5078311;28;20184;-68
2022/04/23 08:12:39;;;;;;;1327.22;717.00;;;17.50;99.90;;;;;;5077634;28;20200;-70
2022/04/23 08:15:06;;;;;;;1495.10;838.72;;;17.80;99.90;;;;;;5078632;28;20535;-69
2022/04/23 08:17:32;;;;;;;1999.90;999.90;;;18.20;99.90;;;;;;5077072;28;20212;-68
2022/04/23 08:19:58;;;;;;;1999.90;999.90;;;18.10;99.90;;;;;;5096317;28;20181;-70
2022/04/23 08:22:24;;;;;;;1999.90;999.90;;;18.60;99.90;;;;;;5095861;28;20196;-70
2022/04/23 08:24:50;;;;;;;1999.90;999.90;;;18.30;99.90;;;;;;5078103;28;20189;-69
2022/04/23 08:27:15;;;;;;;1999.90;999.90;;;18.30;99.90;;;;;;5086662;28;20213;-70
2022/04/23 08:32:25;;;;;;;1999.90;999.90;;;18.80;99.90;;;;;;5094578;28;20200;-69
2022/04/23 08:34:51;;;;;;;1999.90;999.90;;;18.50;99.90;;;;;;5076390;28;20177;-69
2022/04/23 08:37:17;;;;;;;1999.90;999.90;;;19.00;99.90;;;;;;5077733;28;20630;-71
2022/04/23 08:39:43;;;;;;;1999.90;999.90;;;18.90;99.90;;;;;;5060623;28;20280;-70
2022/04/23 08:42:09;;;;;;;1999.90;999.90;;;18.70;99.90;;;;;;5060557;28;20193;-69
2022/04/23 08:44:39;;;;;;;1999.90;999.90;;;19.30;99.90;;;;;;5077599;28;20184;-71
2022/04/23 08:47:06;;;;;;;1999.90;999.90;;;19.60;99.90;;;;;;5095423;28;20176;-71
2022/04/23 08:49:38;;;;;;;1999.90;999.90;;;19.00;99.90;;;;;;5095476;28;20234;-68
2022/04/23 08:52:16;;;;;;;1999.90;999.90;;;19.00;99.90;;;;;;5069724;28;20189;-68
2022/04/23 08:54:42;;;;;;;1999.90;999.90;;;19.40;99.90;;;;;;5077607;28;20218;-71
2022/04/23 08:57:08;;;;;;;1999.90;999.90;;;19.10;99.90;;;;;;5076530;28;20184;-71
2022/04/23 08:59:36;;;;;;;1999.90;999.90;;;19.00;99.90;;;;;;5060487;28;20197;-72
2022/04/23 09:02:07;;;;;;;1999.90;999.90;;;19.40;99.90;;;;;;5076346;28;20180;-70
2022/04/23 09:04:36;;;;;;;1999.90;999.90;;;20.00;99.90;;;;;;5056104;28;20355;-71
2022/04/23 09:07:01;;;;;;;1999.90;999.90;;;19.60;99.90;;;;;;5066813;28;20642;-70
2022/04/23 09:09:27;;;;;;;1999.90;999.90;;;18.80;99.90;;;;;;5094784;28;20217;-71
2022/04/23 09:11:57;;;;;;;1999.90;999.90;;;18.60;99.90;;;;;;5071172;28;20264;-70
2022/04/23 09:14:28;;;;;;;1999.90;999.90;;;18.00;99.90;;;;;;5091147;28;20184;-71
2022/04/23 09:25:47;;;;;;;1999.90;999.90;;;17.30;99.90;;;;;;5074854;28;20200;-69
2022/04/23 09:28:22;;;;;;;1246.93;662.90;;;17.20;99.90;;;;;;5028749;28;20184;-69
2022/04/23 09:30:54;;;;;;;1999.90;999.90;;;17.20;99.90;;;;;;5094723;28;20620;-70
2022/04/23 09:33:27;;;;;;;1999.90;999.90;;;17.20;99.90;;;;;;5060314;28;20282;-70
2022/04/23 09:35:55;;;;;;;1999.90;999.90;;;17.30;99.90;;;;;;5094513;28;20177;-70
2022/04/23 09:38:21;;;;;;;1999.90;999.90;;;17.40;99.90;;;;;;5094240;28;20665;-70
2022/04/23 09:40:57;;;;;;;1999.90;999.90;;;17.40;99.90;;;;;;5043006;28;20276;-70
2022/04/23 09:43:28;;;;;;;1999.90;999.90;;;17.20;99.90;;;;;;5056495;28;20308;-69
2022/04/23 09:46:08;;;;;;;1999.90;999.90;;;17.40;99.90;;;;;;5094027;28;20181;-70
2022/04/23 09:48:34;;;;;;;1999.90;999.90;;;17.60;99.90;;;;;;5094616;28;20181;-71
2022/04/23 09:51:01;;;;;;;1999.90;999.90;;;17.40;99.90;;;;;;5076001;28;20189;-74
2022/04/23 09:53:30;;;;;;;1999.90;999.90;;;17.30;99.90;;;;;;5093423;28;20177;-70
2022/04/23 09:56:02;;;;;;;1999.90;999.90;;;17.20;99.90;;;;;;5076586;28;20195;-69
2022/04/23 09:58:30;;;;;;;1999.90;999.90;;;17.50;99.90;;;;;;5076911;28;20311;-70
2022/04/23 10:00:57;;;;;;;1999.90;999.90;;;17.50;99.90;;;;;;5093428;28;20200;-71
2022/04/23 10:03:31;;;;;;;948.25;550.40;;;17.70;99.90;;;;;;5076079;28;20271;-70
2022/04/23 10:05:58;;;;;;;1999.90;999.90;;;17.30;99.90;;;;;;5093830;28;20661;-71
2022/04/23 10:08:26;;;;;;;1999.90;999.90;;;17.40;99.90;;;;;;5075721;28;20242;-70
2022/04/23 10:11:23;;;;;;;1999.90;999.90;;;17.60;99.90;;;;;;5094163;28;20177;-70
2022/04/23 10:13:56;;;;;;;1999.90;999.90;;;17.60;99.90;;;;;;5085755;28;20242;-72
2022/04/23 10:16:22;;;;;;;1999.90;999.90;;;17.30;99.90;;;;;;5082771;28;20239;-72
2022/04/23 10:18:49;;;;;;;1999.90;999.90;;;17.20;99.90;;;;;;5067019;28;20219;-71
2022/04/23 10:21:24;;;;;;;1999.90;999.90;;;17.60;99.90;;;;;;5075950;28;20206;-71
2022/04/23 10:24:05;;;;;;;1999.90;999.90;;;17.60;99.90;;;;;;5074361;28;20184;-71
2022/04/23 10:26:35;;;;;;;1999.90;999.90;;;17.60;99.90;;;;;;5075194;28;20543;-71
2022/04/23 10:29:16;;;;;;;1999.90;999.90;;;17.30;99.90;;;;;;5075416;28;20607;-70
2022/04/23 10:31:42;;;;;;;1999.90;999.90;;;17.30;99.90;;;;;;5075069;28;20590;-71
2022/04/23 10:34:31;;;;;;;1999.90;999.90;;;17.50;99.90;;;;;;5075275;28;20229;-71
2022/04/23 10:37:22;;;;;;;1999.90;999.90;;;17.70;99.90;;;;;;5074735;28;20192;-71
2022/04/23 10:39:51;;;;;;;1999.90;999.90;;;17.80;99.90;;;;;;5086170;28;20235;-71
2022/04/23 10:42:18;;;;;;;1999.90;999.90;;;17.90;99.90;;;;;;5093779;28;20180;-72
2022/04/23 10:44:48;;;;;;;1999.90;999.90;;;18.00;99.90;;;;;;5075107;28;20188;-71
2022/04/23 10:47:39;;;;;;;1999.90;999.90;;;17.90;99.90;;;;;;5093290;28;20216;-69
2022/04/23 10:52:40;;;;;;;1999.90;999.90;;;18.10;99.90;;;;;;5082463;28;20341;-73
2022/04/23 10:55:07;;;;;;;1999.90;999.90;;;18.30;99.90;;;;;;5075439;28;20189;-71
2022/04/23 10:57:34;;;;;;;1999.90;999.90;;;18.30;99.90;;;;;;5074408;28;20212;-71
2022/04/23 11:00:18;;;;;;;1999.90;999.90;;;18.00;99.90;;;;;;5058776;28;20200;-73
2022/04/23 11:02:54;;;;;;;1999.90;999.90;;;17.80;99.90;;;;;;5073302;28;20198;-71
2022/04/23 11:14:36;;;;;;;1999.90;999.90;;;18.10;99.90;;;;;;5082491;28;20188;-71
2022/04/23 11:17:03;;;;;;;1999.90;999.90;;;18.30;99.90;;;;;;5073063;28;20634;-71
2022/04/23 11:19:30;;;;;;;1999.90;999.90;;;18.50;99.90;;;;;;5083648;28;20208;-70
2022/04/23 11:21:55;;;;;;;1999.90;999.90;;;18.40;99.90;;;;;;5056859;28;20579;-71
2022/04/23 11:24:22;;;;;;;1999.90;999.90;;;18.50;99.90;;;;;;5092284;28;20183;-72
2022/04/23 11:26:50;;;;;;;1999.90;999.90;;;18.60;99.90;;;;;;5091862;28;20184;-72
2022/04/23 11:29:17;;;;;;;1999.90;999.90;;;18.30;99.90;;;;;;5092538;28;20211;-70
2022/04/23 11:31:56;;;;;;;1999.90;999.90;;;18.30;99.90;;;;;;5092746;28;20221;-71
2022/04/23 11:34:22;;;;;;;1999.90;999.90;;;18.50;99.90;;;;;;5074850;28;20180;-72
2022/04/23 11:36:48;;;;;;;1999.90;999.90;;;18.60;99.90;;;;;;5056802;28;20188;-70
2022/04/23 11:39:14;;;;;;;1999.90;999.90;;;18.80;99.90;;;;;;5056739;28;20273;-72
2022/04/23 11:41:42;;;;;;;1999.90;999.90;;;18.80;99.90;;;;;;5092995;28;20645;-70
2022/04/23 11:44:45;;;;;;;1549.28;784.88;;;18.80;99.90;;;;;;5091971;28;20233;-72
2022/04/23 11:47:12;;;;;;;1999.90;999.90;;;18.50;99.90;;;;;;5069199;28;20279;-71
2022/04/23 11:49:38;;;;;;;1999.90;999.90;;;18.80;99.90;;;;;;5074257;28;20216;-70
2022/04/23 11:52:07;;;;;;;1999.90;999.90;;;18.80;99.90;;;;;;5074184;28;20659;-72
2022/04/23 11:54:38;;;;;;;1999.90;999.90;;;18.90;99.90;;;;;;5091990;28;20181;-71
2022/04/23 11:57:05;;;;;;;1999.90;999.90;;;19.10;99.90;;;;;;5092146;28;20189;-70
2022/04/23 11:59:40;;;;;;;1999.90;999.90;;;19.20;99.90;;;;;;5091993;28;20657;-70
2022/04/23 12:02:15;;;;;;;1999.90;999.90;;;19.00;99.90;;;;;;5092310;28;20202;-70
2022/04/23 12:04:44;;;;;;;1999.90;999.90;;;18.90;99.90;;;;;;5078801;28;20212;-71
2022/04/23 12:07:11;;;;;;;1999.90;999.90;;;18.80;99.90;;;;;;5054349;28;20189;-71
2022/04/23 12:10:03;;;;;;;1999.90;999.90;;;18.90;99.90;;;;;;5053771;28;20603;-71
2022/04/23 12:12:31;;;;;;;1999.90;999.90;;;19.20;99.90;;;;;;5087512;28;20231;-71
2022/04/23 12:15:08;;;;;;;1999.90;999.90;;;19.30;99.90;;;;;;5092413;28;20185;-71
2022/04/23 12:17:45;;;;;;;1999.90;999.90;;;19.40;99.90;;;;;;5091485;28;20544;-73
2022/04/23 12:20:13;;;;;;;1999.90;999.90;;;19.90;99.90;;;;;;5078651;28;20181;-72
2022/04/23 12:22:39;;;;;;;1999.90;999.90;;;20.00;99.90;;;;;;5092493;28;20208;-72
2022/04/23 12:25:18;;;;;;;1999.90;999.90;;;19.40;99.90;;;;;;5073355;28;20192;-71
2022/04/23 12:42:21;;;;;;;1274.38;647.60;;;19.80;99.90;;;;;;5079621;28;20223;-70
2022/04/23 12:44:49;;;;;;;1999.90;999.90;;;19.90;99.90;;;;;;5059958;28;20326;-72
2022/04/23 12:47:29;;;;;;;1999.90;999.90;;;20.00;99.90;;;;;;5059464;28;20185;-72